Time;durP1;ratioP1;P1;durP2;ratioP2;P2;SDS_P1;SDS_P2;PMS_P1;PMS_P2;Temp;Humidity;BMP_temperature;BMP_pressure;BME280_temperature;BME280_humidity;BME280_pressure;Samples;Min_cycle;Max_cycle;Signal;HPM_P1;HPM_P2
2024/02/11 00:01:08;;;;;;;10.30;7.40;;;;;;;13.33;68.09;94473.34;4964388;28;20115;-83
2024/02/11 00:03:37;;;;;;;9.45;6.72;;;;;;;13.37;68.12;94479.47;4987724;28;20036;-84
2024/02/11 00:06:04;;;;;;;9.60;7.32;;;;;;;13.41;67.20;94475.09;4899074;29;20037;-84
2024/02/11 00:08:30;;;;;;;8.10;6.22;;;;;;;13.28;67.51;94466.47;4974457;28;20037;-85
2024/02/11 00:10:55;;;;;;;8.48;6.40;;;;;;;13.38;67.29;94476.50;4873037;28;20047;-84
2024/02/11 00:13:21;;;;;;;9.45;6.68;;;;;;;13.41;67.19;94470.63;4883723;29;20547;-85
2024/02/11 00:15:47;;;;;;;9.25;6.43;;;;;;;13.39;67.19;94472.06;4897860;29;20111;-83
2024/02/11 00:18:13;;;;;;;7.97;6.28;;;;;;;13.23;67.59;94462.22;4899642;29;20119;-84
2024/02/11 00:20:39;;;;;;;8.27;5.93;;;;;;;13.30;68.22;94465.06;4950714;28;20071;-84
2024/02/11 00:23:07;;;;;;;8.27;6.20;;;;;;;13.36;67.33;94464.88;4909472;29;20135;-83
2024/02/11 00:25:33;;;;;;;6.90;5.40;;;;;;;13.34;67.83;94480.88;4903761;28;20124;-83
2024/02/11 00:27:59;;;;;;;8.68;5.80;;;;;;;13.33;67.35;94478.56;4906138;28;20040;-85
2024/02/11 00:30:28;;;;;;;6.05;5.25;;;;;;;13.32;67.04;94472.59;4882437;29;20159;-83
2024/02/11 00:32:57;;;;;;;7.05;5.80;;;;;;;13.33;67.43;94476.72;4890227;29;20037;-84
2024/02/11 00:35:23;;;;;;;6.60;5.13;;;;;;;13.29;67.84;94471.34;4889838;28;20586;-82
2024/02/11 00:37:49;;;;;;;6.30;4.93;;;;;;;13.17;66.87;94476.59;4898446;29;20087;-83
2024/02/11 00:40:14;;;;;;;6.95;5.13;;;;;;;13.21;67.38;94461.81;4887269;29;20044;-85
2024/02/11 00:42:40;;;;;;;5.78;4.43;;;;;;;13.19;67.51;94465.81;4902173;29;20050;-82
2024/02/11 00:45:06;;;;;;;6.25;4.63;;;;;;;13.23;67.00;94480.53;4896670;28;20044;-82
2024/02/11 00:47:31;;;;;;;4.93;4.03;;;;;;;13.10;66.48;94460.72;4894733;29;20032;-79
2024/02/11 00:49:57;;;;;;;6.15;4.28;;;;;;;13.12;66.94;94471.59;4876579;29;20047;-78
2024/02/11 00:52:22;;;;;;;4.82;4.18;;;;;;;13.12;67.02;94471.59;4900112;29;20116;-79
2024/02/11 00:54:48;;;;;;;3.97;3.00;;;;;;;13.20;67.38;94480.41;4897207;29;20694;-78
2024/02/11 00:57:14;;;;;;;3.90;3.30;;;;;;;12.87;66.65;94486.50;4885910;29;20449;-78
2024/02/11 00:59:45;;;;;;;4.57;3.22;;;;;;;12.97;66.42;94488.69;4889424;28;20091;-78
2024/02/11 01:02:11;;;;;;;3.65;2.85;;;;;;;12.94;66.55;94497.16;4921840;28;20055;-78
2024/02/11 01:04:38;;;;;;;3.63;3.25;;;;;;;12.82;65.94;94508.34;4879886;29;20040;-78
2024/02/11 01:07:07;;;;;;;2.90;2.38;;;;;;;12.41;67.47;94504.75;4904470;28;20250;-79
2024/02/11 01:09:33;;;;;;;2.42;2.22;;;;;;;12.40;66.14;94510.31;4901504;29;20036;-78
2024/02/11 01:11:59;;;;;;;2.90;1.80;;;;;;;12.46;65.90;94519.47;4893654;28;20043;-77
2024/02/11 01:14:24;;;;;;;2.33;1.75;;;;;;;12.45;66.14;94530.97;4889084;29;20048;-79
2024/02/11 01:16:50;;;;;;;1.70;1.20;;;;;;;12.02;66.19;94525.03;4930703;28;20034;-79
2024/02/11 01:19:15;;;;;;;1.27;1.17;;;;;;;12.12;65.09;94529.09;4868279;28;20028;-78
2024/02/11 01:21:41;;;;;;;1.00;0.88;;;;;;;12.07;64.85;94537.88;4893022;29;20047;-78
2024/02/11 01:24:06;;;;;;;1.45;1.10;;;;;;;11.96;65.67;94537.50;4908042;29;20070;-78
2024/02/11 01:26:36;;;;;;;1.08;0.82;;;;;;;11.94;65.34;94531.84;4903652;29;20496;-78
2024/02/11 01:29:04;;;;;;;1.38;0.70;;;;;;;11.84;65.56;94549.66;4908627;28;20051;-79
2024/02/11 01:31:35;;;;;;;1.50;0.90;;;;;;;11.83;64.43;94541.09;4903162;29;20542;-78
2024/02/11 01:34:00;;;;;;;1.30;1.20;;;;;;;11.65;65.14;94547.47;4887772;29;20039;-79
2024/02/11 01:36:25;;;;;;;0.90;0.80;;;;;;;11.37;65.75;94543.47;4902019;29;20036;-78
2024/02/11 01:38:53;;;;;;;1.55;1.00;;;;;;;11.18;65.97;94556.88;4888912;28;20054;-77
2024/02/11 01:41:18;;;;;;;1.67;1.17;;;;;;;11.51;65.73;94550.31;4900095;29;20063;-76
2024/02/11 01:43:44;;;;;;;1.40;1.15;;;;;;;11.19;66.81;94545.41;4994411;28;20047;-79
2024/02/11 01:46:09;;;;;;;2.08;1.50;;;;;;;11.32;66.24;94540.28;4884688;29;20130;-77
2024/02/11 01:48:34;;;;;;;1.85;1.23;;;;;;;11.36;65.42;94549.78;4888075;29;20507;-85
2024/02/11 01:51:00;;;;;;;2.60;1.58;;;;;;;11.42;66.08;94555.56;4876691;28;20391;-81
2024/02/11 01:53:27;;;;;;;1.80;1.48;;;;;;;11.32;66.64;94567.09;4960652;28;20044;-84
2024/02/11 01:55:53;;;;;;;2.00;1.17;;;;;;;11.07;66.50;94571.34;4898963;28;20520;-84
2024/02/11 01:58:19;;;;;;;1.98;1.40;;;;;;;11.23;65.92;94574.94;4871500;29;20063;-84
2024/02/11 02:00:44;;;;;;;2.35;1.75;;;;;;;11.02;66.87;94574.09;4871355;28;20064;-83
2024/02/11 02:03:11;;;;;;;2.00;1.58;;;;;;;11.17;66.40;94567.59;4897312;29;20036;-85
2024/02/11 02:05:37;;;;;;;2.15;1.65;;;;;;;11.13;66.09;94569.31;4905817;29;20724;-83
2024/02/11 02:08:04;;;;;;;2.40;2.00;;;;;;;11.15;66.32;94577.56;4905770;28;20055;-85
2024/02/11 02:10:29;;;;;;;2.80;2.00;;;;;;;11.09;65.68;94568.41;4907183;29;20084;-85
2024/02/11 02:12:55;;;;;;;4.38;2.33;;;;;;;10.89;66.67;94573.19;4877336;29;20108;-82
2024/02/11 02:15:22;;;;;;;3.33;2.03;;;;;;;10.78;67.23;94564.19;4885181;29;20051;-86
2024/02/11 02:17:48;;;;;;;3.10;2.15;;;;;;;10.73;66.43;94569.56;4914794;29;20036;-87
2024/02/11 02:20:14;;;;;;;3.55;1.85;;;;;;;10.75;66.78;94586.41;4896423;28;20350;-85
2024/02/11 02:22:41;;;;;;;2.75;1.88;;;;;;;10.73;66.57;94580.75;4868755;29;20036;-85
2024/02/11 02:25:07;;;;;;;2.92;1.98;;;;;;;10.88;65.79;94579.47;4906634;29;20036;-82
2024/02/11 02:27:32;;;;;;;3.38;2.05;;;;;;;10.98;66.60;94579.13;4913229;29;20504;-86
2024/02/11 02:29:57;;;;;;;3.35;2.45;;;;;;;10.80;66.63;94564.66;4895963;29;20048;-84
2024/02/11 02:32:23;;;;;;;2.75;1.95;;;;;;;10.70;66.10;94564.97;4905210;29;20071;-86
2024/02/11 02:34:50;;;;;;;2.03;1.50;;;;;;;10.86;65.79;94571.22;4969627;28;20040;-87
2024/02/11 02:37:15;;;;;;;2.63;1.75;;;;;;;10.85;66.03;94577.50;4890907;29;20042;-83
2024/02/11 02:39:41;;;;;;;2.78;1.23;;;;;;;10.76;66.33;94584.56;4992624;28;20037;-86
2024/02/11 02:42:06;;;;;;;1.80;1.45;;;;;;;10.99;66.03;94582.53;4874333;28;20094;-85
2024/02/11 02:44:32;;;;;;;3.88;1.27;;;;;;;10.97;65.05;94580.22;4894920;29;20032;-86
2024/02/11 02:46:58;;;;;;;2.38;1.38;;;;;;;10.71;65.87;94589.91;4909197;28;20036;-85
2024/02/11 02:49:23;;;;;;;1.67;1.10;;;;;;;10.83;65.88;94588.22;4886848;29;20040;-84
2024/02/11 02:51:48;;;;;;;2.90;1.63;;;;;;;10.75;65.57;94589.00;4904112;29;20039;-83
2024/02/11 02:54:14;;;;;;;1.65;1.20;;;;;;;10.83;65.23;94587.44;4900887;29;20488;-84
2024/02/11 02:56:39;;;;;;;2.10;1.25;;;;;;;10.80;65.27;94591.44;4889820;29;20041;-78
2024/02/11 02:59:08;;;;;;;1.73;1.00;;;;;;;10.83;65.23;94593.44;4957013;28;20082;-79
2024/02/11 03:01:34;;;;;;;1.98;1.40;;;;;;;10.72;65.70;94602.63;4898887;29;20032;-77
2024/02/11 03:04:01;;;;;;;2.55;1.50;;;;;;;10.69;65.91;94598.03;4888033;29;20357;-79
2024/02/11 03:06:26;;;;;;;3.42;1.42;;;;;;;10.70;65.76;94601.41;4871555;29;20396;-77
2024/02/11 03:08:51;;;;;;;3.20;1.90;;;;;;;10.47;65.78;94604.94;4906065;28;20035;-78
2024/02/11 03:11:17;;;;;;;3.55;2.10;;;;;;;10.66;65.82;94615.03;4888549;29;20170;-78
2024/02/11 03:13:43;;;;;;;3.95;2.50;;;;;;;10.63;65.67;94615.66;4881511;29;20396;-78
2024/02/11 03:16:09;;;;;;;4.47;2.42;;;;;;;10.66;64.94;94625.44;4889142;29;20603;-79
2024/02/11 03:18:35;;;;;;;6.00;2.72;;;;;;;10.72;65.17;94617.47;4900103;29;20032;-78
2024/02/11 03:21:00;;;;;;;4.50;2.33;;;;;;;10.40;66.15;94624.66;4898938;29;20037;-79
2024/02/11 03:23:26;;;;;;;3.55;2.22;;;;;;;10.52;65.36;94635.25;4914055;29;20041;-77
2024/02/11 03:25:51;;;;;;;5.07;2.38;;;;;;;10.55;65.58;94634.63;4883217;28;20040;-80
2024/02/11 03:28:17;;;;;;;3.80;2.25;;;;;;;10.64;65.25;94645.03;4904147;29;20403;-79
2024/02/11 03:30:43;;;;;;;3.75;2.55;;;;;;;10.58;64.81;94643.66;4884076;28;20044;-79
2024/02/11 03:33:08;;;;;;;4.13;3.00;;;;;;;10.72;64.71;94654.69;4877742;29;20028;-79
2024/02/11 03:35:34;;;;;;;4.40;2.75;;;;;;;10.67;64.64;94647.03;4957989;28;20496;-78
2024/02/11 03:37:59;;;;;;;4.63;2.83;;;;;;;10.62;64.54;94652.38;4910598;29;20119;-79
2024/02/11 03:40:27;;;;;;;5.40;3.05;;;;;;;10.71;64.88;94652.38;4887594;29;20044;-79
2024/02/11 03:42:53;;;;;;;5.30;2.38;;;;;;;10.55;65.35;94659.88;4878426;28;20574;-78
2024/02/11 03:45:19;;;;;;;4.95;2.50;;;;;;;10.40;64.91;94655.88;4888812;29;20040;-79
2024/02/11 03:47:44;;;;;;;4.72;2.80;;;;;;;10.48;65.08;94671.50;4903133;29;20497;-78
2024/02/11 03:50:10;;;;;;;5.05;2.40;;;;;;;10.60;64.95;94662.34;4889938;28;20101;-78
2024/02/11 03:52:36;;;;;;;5.15;2.67;;;;;;;10.42;65.56;94662.31;4898597;29;20036;-78
2024/02/11 03:55:07;;;;;;;5.35;2.75;;;;;;;10.43;64.91;94661.25;4991360;28;20042;-78
2024/02/11 03:57:33;;;;;;;5.30;3.20;;;;;;;10.50;65.54;94663.38;4906429;28;20046;-79
2024/02/11 03:59:58;;;;;;;4.45;2.97;;;;;;;10.49;66.03;94673.03;4906658;29;20032;-79
2024/02/11 04:02:24;;;;;;;6.47;3.70;;;;;;;10.58;65.14;94670.44;4894033;29;20040;-78
2024/02/11 04:04:49;;;;;;;8.32;3.22;;;;;;;10.56;65.56;94683.00;4877336;29;20469;-79
2024/02/11 04:07:15;;;;;;;6.07;3.47;;;;;;;10.60;64.84;94670.91;4900043;29;20040;-79
2024/02/11 04:09:41;;;;;;;6.20;3.70;;;;;;;10.59;65.24;94677.19;4904036;29;20043;-79
2024/02/11 04:12:10;;;;;;;7.60;3.67;;;;;;;10.60;65.13;94677.94;4894598;29;20036;-79
2024/02/11 04:14:36;;;;;;;7.63;3.83;;;;;;;10.52;65.63;94678.69;4892146;29;20064;-77
2024/02/11 04:17:03;;;;;;;9.82;4.55;;;;;;;10.44;65.76;94682.84;4906533;28;20075;-78
2024/02/11 04:19:32;;;;;;;7.65;4.45;;;;;;;10.32;65.59;94682.66;4920132;28;20075;-85
2024/02/11 04:22:00;;;;;;;8.32;4.65;;;;;;;10.48;65.67;94686.34;4891655;28;20044;-84
2024/02/11 04:24:28;;;;;;;8.13;4.88;;;;;;;10.53;65.36;94688.81;4894302;29;20049;-85
2024/02/11 04:26:54;;;;;;;9.35;4.95;;;;;;;10.53;65.48;94683.59;4869576;29;20497;-84
2024/02/11 04:29:21;;;;;;;6.40;4.47;;;;;;;10.56;65.08;94692.66;4877729;29;20032;-85
2024/02/11 04:31:47;;;;;;;12.40;5.22;;;;;;;10.63;64.89;94704.13;4908592;29;20106;-85
2024/02/11 04:34:13;;;;;;;8.25;4.53;;;;;;;10.60;65.51;94691.72;4884252;29;20130;-84
2024/02/11 04:36:38;;;;;;;9.50;5.40;;;;;;;10.54;65.38;94692.16;4895527;29;20565;-85
2024/02/11 04:39:07;;;;;;;8.80;4.90;;;;;;;10.64;65.27;94684.06;4900544;29;20037;-84
2024/02/11 04:41:39;;;;;;;8.77;4.80;;;;;;;10.60;65.02;94685.75;4887721;29;20118;-83
2024/02/11 04:44:08;;;;;;;8.07;5.03;;;;;;;10.61;64.50;94688.06;4880225;28;20055;-84
2024/02/11 04:46:33;;;;;;;6.82;4.93;;;;;;;10.55;64.30;94686.66;4907993;29;20094;-85
2024/02/11 04:48:59;;;;;;;11.23;5.15;;;;;;;10.58;64.94;94691.25;4905740;29;20520;-86
2024/02/11 04:51:30;;;;;;;6.75;4.20;;;;;;;10.66;64.44;94682.69;4893941;29;20054;-84
2024/02/11 04:53:58;;;;;;;8.82;5.05;;;;;;;10.61;64.91;94695.09;4918303;29;20314;-85
2024/02/11 04:56:27;;;;;;;6.45;4.38;;;;;;;10.65;65.59;94691.56;4908693;28;20406;-84
2024/02/11 04:58:53;;;;;;;8.13;4.97;;;;;;;10.58;65.26;94695.69;4901041;29;20036;-83
2024/02/11 05:01:18;;;;;;;7.95;5.72;;;;;;;10.50;65.00;94699.81;4882936;29;20404;-86
2024/02/11 05:03:46;;;;;;;9.93;5.55;;;;;;;10.49;65.49;94695.69;4878205;29;20043;-86
2024/02/11 05:06:15;;;;;;;8.93;5.68;;;;;;;10.47;65.28;94696.00;4907731;29;20036;-82
2024/02/11 05:08:42;;;;;;;10.20;5.53;;;;;;;10.53;65.52;94696.59;4905950;29;20040;-86
2024/02/11 05:11:07;;;;;;;9.25;5.70;;;;;;;10.42;65.33;94688.34;4909823;29;20040;-83
2024/02/11 05:13:33;;;;;;;10.52;5.68;;;;;;;10.50;65.09;94694.59;4899579;29;20186;-85
2024/02/11 05:16:03;;;;;;;10.02;6.13;;;;;;;10.63;65.27;94696.31;4887256;29;20091;-85
2024/02/11 05:18:29;;;;;;;10.93;5.75;;;;;;;10.55;65.03;94691.84;4924960;29;20461;-84
2024/02/11 05:20:56;;;;;;;9.00;6.38;;;;;;;10.55;65.15;94696.31;4910154;28;20472;-84
2024/02/11 05:23:22;;;;;;;10.95;6.32;;;;;;;10.55;64.84;94697.06;4893048;28;20194;-83
2024/02/11 05:25:47;;;;;;;8.77;5.88;;;;;;;10.47;65.65;94700.44;4906447;29;20052;-84
2024/02/11 05:28:13;;;;;;;9.73;5.40;;;;;;;10.49;65.52;94708.69;4898312;29;20083;-79
2024/02/11 05:30:43;;;;;;;10.82;6.20;;;;;;;10.55;64.97;94706.72;4881774;29;20028;-78
2024/02/11 05:33:09;;;;;;;11.07;6.07;;;;;;;10.58;65.17;94712.06;4876322;29;20078;-78
2024/02/11 05:35:37;;;;;;;11.43;6.13;;;;;;;10.37;65.69;94711.13;4884905;29;20063;-78
2024/02/11 05:38:06;;;;;;;9.77;6.22;;;;;;;10.56;64.60;94714.22;4882386;29;20497;-78
2024/02/11 05:40:41;;;;;;;10.23;6.30;;;;;;;10.57;65.23;94722.78;4910801;28;20063;-79
2024/02/11 05:43:08;;;;;;;9.95;6.25;;;;;;;10.47;65.48;94718.66;4902096;29;20092;-79
2024/02/11 05:45:35;;;;;;;10.60;5.85;;;;;;;10.40;64.45;94708.69;4885446;29;20047;-79
2024/02/11 05:48:01;;;;;;;11.77;5.80;;;;;;;10.28;65.68;94719.66;4890000;29;20473;-78
2024/02/11 05:50:26;;;;;;;9.88;6.50;;;;;;;10.39;65.08;94719.41;4894889;29;20131;-79
2024/02/11 05:52:53;;;;;;;9.38;5.97;;;;;;;10.51;65.29;94732.56;4867163;28;20032;-78
2024/02/11 05:55:19;;;;;;;10.93;6.88;;;;;;;10.54;65.64;94723.38;4884154;29;20032;-79
2024/02/11 05:57:49;;;;;;;9.55;6.28;;;;;;;10.48;64.46;94718.31;4931018;28;20568;-78
2024/02/11 06:00:18;;;;;;;10.02;5.90;;;;;;;10.53;65.01;94725.22;4872058;29;20041;-79
2024/02/11 06:02:53;;;;;;;11.07;6.45;;;;;;;10.65;64.55;94737.66;4906628;28;20572;-79
2024/02/11 06:05:19;;;;;;;10.10;5.82;;;;;;;10.51;64.41;94737.03;4898562;29;20066;-79
2024/02/11 06:07:47;;;;;;;10.95;5.65;;;;;;;10.55;64.47;94738.69;4902292;29;20032;-79
2024/02/11 06:10:16;;;;;;;11.00;6.95;;;;;;;10.31;65.55;94733.88;4925813;29;20489;-79
2024/02/11 06:12:42;;;;;;;10.27;5.72;;;;;;;10.22;65.37;94748.69;4877253;28;20046;-79
2024/02/11 06:15:10;;;;;;;10.60;5.78;;;;;;;10.39;64.77;94748.00;4872332;29;20040;-77
2024/02/11 06:17:38;;;;;;;10.35;5.93;;;;;;;10.51;64.99;94756.00;4989792;28;20503;-79
2024/02/11 06:20:09;;;;;;;9.85;5.97;;;;;;;10.49;64.54;94750.34;4918443;28;20478;-77
2024/02/11 06:22:37;;;;;;;9.35;6.20;;;;;;;10.60;64.18;94759.38;4883798;28;20111;-79
2024/02/11 06:25:04;;;;;;;11.50;5.90;;;;;;;10.52;64.52;94748.94;4950310;28;20056;-79
2024/02/11 06:27:29;;;;;;;10.23;5.57;;;;;;;10.49;65.22;94760.75;4899428;29;20098;-79
2024/02/11 06:29:54;;;;;;;9.57;5.90;;;;;;;10.46;64.98;94761.34;4900014;28;20036;-84
2024/02/11 06:32:20;;;;;;;15.40;6.20;;;;;;;10.49;64.64;94758.88;4972908;28;20040;-84
2024/02/11 06:34:45;;;;;;;10.15;5.80;;;;;;;10.48;64.90;94774.81;4884701;29;20039;-85
2024/02/11 06:37:11;;;;;;;12.20;6.25;;;;;;;10.59;64.15;94777.88;4889719;28;20040;-84
2024/02/11 06:39:40;;;;;;;12.40;6.18;;;;;;;10.67;64.64;94783.09;4890945;28;20040;-79
2024/02/11 06:42:09;;;;;;;13.27;6.22;;;;;;;10.57;65.01;94783.38;4892150;28;20594;-77
2024/02/11 06:44:41;;;;;;;10.25;5.53;;;;;;;10.68;64.10;94789.84;4909852;29;20123;-79
2024/02/11 06:47:10;;;;;;;11.93;6.90;;;;;;;10.66;64.89;94789.38;4886377;29;20095;-79
2024/02/11 06:49:39;;;;;;;10.40;6.57;;;;;;;10.60;64.73;94790.59;4889966;29;20028;-79
2024/02/11 06:52:09;;;;;;;10.20;5.85;;;;;;;10.61;64.40;94804.38;4900658;29;20644;-80
2024/02/11 06:54:35;;;;;;;11.20;6.22;;;;;;;10.57;65.02;94798.25;4940399;28;20040;-79
2024/02/11 06:57:01;;;;;;;10.38;5.88;;;;;;;10.59;65.01;94804.69;4907045;29;20047;-79
2024/02/11 06:59:27;;;;;;;10.05;6.63;;;;;;;10.43;65.75;94803.56;4846985;29;20127;-78
2024/02/11 07:01:56;;;;;;;13.13;6.53;;;;;;;10.59;65.61;94811.72;4909025;28;20555;-78
2024/02/11 07:04:21;;;;;;;13.93;7.28;;;;;;;10.52;65.74;94819.19;4887609;29;20047;-79
2024/02/11 07:06:47;;;;;;;12.57;6.47;;;;;;;10.56;65.17;94804.53;4919291;28;20028;-78
2024/02/11 07:09:13;;;;;;;10.80;5.38;;;;;;;10.72;64.34;94830.88;4890672;28;20131;-79
2024/02/11 07:11:41;;;;;;;13.73;6.78;;;;;;;10.72;64.61;94826.44;4908879;29;20032;-78
2024/02/11 07:14:07;;;;;;;12.45;6.40;;;;;;;10.64;65.00;94830.56;4904865;29;20035;-79
2024/02/11 07:16:33;;;;;;;12.77;6.32;;;;;;;10.63;65.26;94818.63;4882148;29;20387;-79
2024/02/11 07:18:59;;;;;;;10.57;6.13;;;;;;;10.63;64.91;94830.88;4968509;28;20072;-79
2024/02/11 07:21:24;;;;;;;14.48;6.32;;;;;;;10.54;65.45;94824.84;4915669;28;20063;-79
2024/02/11 07:23:49;;;;;;;12.27;6.22;;;;;;;10.52;65.89;94827.00;4877344;28;20036;-79
2024/02/11 07:26:16;;;;;;;11.57;6.20;;;;;;;10.62;65.47;94837.88;4869879;29;20115;-79
2024/02/11 07:28:42;;;;;;;13.02;6.43;;;;;;;10.61;65.13;94836.38;4907573;29;20083;-78
2024/02/11 07:31:08;;;;;;;12.25;6.60;;;;;;;10.67;64.87;94842.19;4884153;29;20504;-78
2024/02/11 07:33:33;;;;;;;11.57;6.90;;;;;;;10.64;65.61;94848.00;4864123;29;20098;-79
2024/02/11 07:35:59;;;;;;;13.15;6.40;;;;;;;10.59;66.20;94841.13;4893421;29;20031;-78
2024/02/11 07:38:26;;;;;;;9.25;5.78;;;;;;;10.72;65.61;94847.25;4891262;29;20094;-84
2024/02/11 07:40:53;;;;;;;11.10;5.68;;;;;;;10.74;65.31;94846.97;4882718;28;20519;-84
2024/02/11 07:43:19;;;;;;;10.88;6.55;;;;;;;10.66;65.79;94853.69;4887276;29;20043;-83
2024/02/11 07:45:44;;;;;;;12.77;6.53;;;;;;;10.81;65.02;94862.91;4902500;28;20036;-84
2024/02/11 07:48:10;;;;;;;9.52;5.78;;;;;;;10.65;65.01;94850.31;4888982;28;20097;-79
2024/02/11 07:50:36;;;;;;;11.57;5.80;;;;;;;10.74;64.97;94865.19;4956514;28;20112;-80
2024/02/11 07:53:05;;;;;;;11.25;5.90;;;;;;;10.75;65.60;94861.53;4901386;29;20055;-79
2024/02/11 07:55:31;;;;;;;9.65;5.80;;;;;;;10.68;65.04;94862.72;4890927;29;20478;-78
2024/02/11 07:58:00;;;;;;;9.18;5.18;;;;;;;10.52;66.01;94864.22;4904948;29;20040;-77
2024/02/11 08:00:26;;;;;;;10.45;6.22;;;;;;;10.64;66.00;94866.22;4905868;29;20040;-79
2024/02/11 08:02:52;;;;;;;11.00;6.30;;;;;;;10.65;65.10;94865.91;4902334;29;20040;-78
2024/02/11 08:05:17;;;;;;;10.30;5.82;;;;;;;10.72;65.48;94872.53;4888937;29;20111;-78
2024/02/11 08:07:43;;;;;;;11.65;5.82;;;;;;;10.63;65.67;94881.06;4872059;28;20062;-78
2024/02/11 08:10:08;;;;;;;13.98;5.80;;;;;;;10.68;65.51;94877.56;4902420;29;20055;-80
2024/02/11 08:12:34;;;;;;;9.32;6.07;;;;;;;10.56;66.44;94879.97;4927342;28;20040;-77
2024/02/11 08:15:00;;;;;;;8.55;5.30;;;;;;;10.67;65.94;94892.41;4905070;29;20155;-79
2024/02/11 08:17:26;;;;;;;11.30;5.30;;;;;;;10.74;65.50;94891.22;4919254;28;20131;-79
2024/02/11 08:19:51;;;;;;;11.88;6.43;;;;;;;10.66;66.17;94875.28;4891987;28;20115;-78
2024/02/11 08:22:18;;;;;;;9.65;4.95;;;;;;;10.73;65.91;94876.66;4871486;29;20032;-78
2024/02/11 08:24:44;;;;;;;8.50;5.47;;;;;;;10.74;66.35;94875.59;4888518;29;20463;-79
2024/02/11 08:27:09;;;;;;;9.00;5.50;;;;;;;10.72;65.62;94878.50;4869437;29;20036;-78
2024/02/11 08:29:35;;;;;;;10.60;5.50;;;;;;;10.72;65.90;94882.94;4971407;28;20032;-76
2024/02/11 08:32:02;;;;;;;8.23;5.18;;;;;;;10.77;66.06;94882.81;4892021;29;20039;-79
2024/02/11 08:34:27;;;;;;;11.95;6.47;;;;;;;10.75;66.07;94893.50;4911345;29;20040;-79
2024/02/11 08:36:53;;;;;;;7.97;5.45;;;;;;;10.73;65.68;94882.66;4888908;28;20024;-79
2024/02/11 08:39:19;;;;;;;9.48;5.78;;;;;;;10.67;66.61;94891.66;4877773;29;20025;-79
2024/02/11 08:41:44;;;;;;;8.05;5.40;;;;;;;10.83;65.52;94886.78;4871546;28;20039;-79
2024/02/11 08:44:11;;;;;;;10.13;5.88;;;;;;;10.71;66.19;94891.81;4941869;28;20080;-77
2024/02/11 08:46:37;;;;;;;9.70;6.38;;;;;;;10.84;65.57;94896.91;4903650;28;20102;-79
2024/02/11 08:49:03;;;;;;;9.68;5.90;;;;;;;10.73;65.84;94900.06;4884055;29;20041;-82
2024/02/11 08:51:28;;;;;;;10.15;6.00;;;;;;;10.84;65.42;94901.34;4971879;28;20118;-83
2024/02/11 08:53:54;;;;;;;9.50;5.40;;;;;;;10.72;66.00;94906.38;4864046;29;20115;-82
2024/02/11 08:56:20;;;;;;;9.60;6.28;;;;;;;10.82;65.16;94912.06;4904336;29;20044;-83
2024/02/11 08:58:46;;;;;;;9.25;6.25;;;;;;;10.64;66.43;94903.44;4903191;29;20033;-79
2024/02/11 09:01:11;;;;;;;10.18;6.10;;;;;;;10.86;65.15;94912.22;4888335;28;20039;-79
2024/02/11 09:03:37;;;;;;;11.52;5.72;;;;;;;10.51;67.09;94909.50;4984952;28;20035;-77
2024/02/11 09:06:05;;;;;;;12.40;5.75;;;;;;;10.75;66.39;94914.34;4888724;29;20044;-77
2024/02/11 09:08:32;;;;;;;12.23;6.68;;;;;;;10.78;66.52;94918.16;4882590;29;20035;-78
2024/02/11 09:10:58;;;;;;;12.52;7.13;;;;;;;10.77;66.35;94911.44;4912956;29;20051;-76
2024/02/11 09:13:23;;;;;;;9.55;6.47;;;;;;;10.96;65.30;94919.00;4986134;28;20037;-79
2024/02/11 09:15:49;;;;;;;11.60;6.40;;;;;;;10.94;66.34;94901.06;4887796;29;20481;-79
2024/02/11 09:18:19;;;;;;;11.73;6.10;;;;;;;11.03;65.11;94912.28;4907545;29;20047;-80
2024/02/11 09:20:45;;;;;;;10.98;6.15;;;;;;;11.06;64.94;94923.94;4904534;28;20094;-77
2024/02/11 09:23:10;;;;;;;8.40;5.85;;;;;;;11.16;65.28;94933.31;4881913;29;20036;-79
2024/02/11 09:25:36;;;;;;;7.88;5.45;;;;;;;11.26;64.96;94935.63;4897849;29;20040;-78
2024/02/11 09:28:03;;;;;;;8.70;5.35;;;;;;;11.24;64.60;94924.72;4895604;28;20032;-80
2024/02/11 09:30:29;;;;;;;9.88;5.40;;;;;;;11.14;65.14;94931.00;4973235;28;20063;-79
2024/02/11 09:32:54;;;;;;;13.60;5.63;;;;;;;11.26;64.70;94927.81;4885809;28;20511;-79
2024/02/11 09:35:21;;;;;;;10.63;5.70;;;;;;;11.19;64.86;94933.47;4900427;29;20044;-79
2024/02/11 09:37:47;;;;;;;7.22;5.22;;;;;;;11.20;64.35;94923.81;4873265;29;20052;-79
2024/02/11 09:40:15;;;;;;;7.82;5.30;;;;;;;11.11;64.58;94936.81;4897553;29;20075;-78
2024/02/11 09:42:43;;;;;;;7.95;5.00;;;;;;;11.29;64.29;94936.84;4891340;28;20044;-79
2024/02/11 09:45:09;;;;;;;7.57;4.72;;;;;;;11.15;64.69;94931.78;4902882;29;20123;-79
2024/02/11 09:47:37;;;;;;;7.00;4.43;;;;;;;11.14;64.29;94933.63;4916185;29;20092;-79
2024/02/11 09:50:04;;;;;;;8.05;5.10;;;;;;;11.18;64.76;94937.13;4909291;29;20444;-78
2024/02/11 09:52:29;;;;;;;6.15;3.97;;;;;;;11.21;64.36;94935.78;4902745;29;20040;-78
2024/02/11 09:54:55;;;;;;;6.13;4.35;;;;;;;11.18;65.03;94941.59;4989488;28;20039;-79
2024/02/11 09:57:20;;;;;;;9.90;5.13;;;;;;;11.08;64.68;94936.66;4871968;28;20040;-77
2024/02/11 09:59:46;;;;;;;8.00;4.45;;;;;;;10.95;65.41;94949.50;4896247;29;20028;-78
2024/02/11 10:02:18;;;;;;;6.57;4.40;;;;;;;11.03;65.25;94953.19;4970537;28;20378;-78
2024/02/11 10:04:45;;;;;;;9.13;4.32;;;;;;;11.02;65.58;94959.47;4907811;29;20040;-79
2024/02/11 10:07:26;;;;;;;8.20;5.07;;;;;;;11.11;66.17;94962.09;4871325;29;20075;-78
2024/02/11 10:09:56;;;;;;;8.63;4.90;;;;;;;11.14;66.02;94967.47;4868338;28;20119;-82
2024/02/11 10:12:22;;;;;;;7.03;4.75;;;;;;;11.23;65.76;94970.09;4877644;29;20032;-84
2024/02/11 10:14:56;;;;;;;8.30;5.22;;;;;;;11.39;65.32;94973.81;4893123;28;20031;-84
2024/02/11 10:17:22;;;;;;;10.73;4.97;;;;;;;11.30;64.92;94967.81;4907925;28;20462;-84
2024/02/11 10:19:51;;;;;;;7.53;4.70;;;;;;;11.37;64.51;94969.97;4896766;28;20373;-84
2024/02/11 10:22:17;;;;;;;7.03;4.40;;;;;;;11.42;65.04;94977.66;4866556;29;20492;-83
2024/02/11 10:24:42;;;;;;;6.93;5.00;;;;;;;11.41;64.98;94981.31;4883711;29;20563;-85
2024/02/11 10:27:07;;;;;;;6.53;4.45;;;;;;;11.42;64.52;94995.88;4884554;29;20344;-84
2024/02/11 10:29:33;;;;;;;5.88;4.32;;;;;;;11.28;64.56;94977.78;4954704;28;20438;-83
2024/02/11 10:31:59;;;;;;;5.47;3.92;;;;;;;11.37;64.69;94986.38;4882686;29;20041;-84
2024/02/11 10:34:24;;;;;;;7.55;4.28;;;;;;;11.39;64.82;94984.22;4891311;28;20071;-83
2024/02/11 10:36:50;;;;;;;5.00;4.05;;;;;;;11.28;64.20;94987.44;4901617;28;20032;-86
2024/02/11 10:39:15;;;;;;;7.82;3.92;;;;;;;11.39;63.74;94994.66;4873682;29;20040;-86
2024/02/11 10:41:41;;;;;;;6.22;4.15;;;;;;;11.38;64.56;94987.16;4905628;29;20063;-84
2024/02/11 10:44:08;;;;;;;6.78;3.92;;;;;;;11.53;63.58;94989.34;4882398;28;20092;-84
2024/02/11 10:46:33;;;;;;;7.50;3.63;;;;;;;11.47;63.90;94987.94;4896227;29;20036;-84
2024/02/11 10:49:00;;;;;;;8.48;4.32;;;;;;;11.58;63.58;94996.22;4884624;29;20043;-84
2024/02/11 10:51:31;;;;;;;6.57;4.47;;;;;;;11.52;63.71;94984.44;4902413;29;20468;-83
2024/02/11 10:53:59;;;;;;;6.65;4.25;;;;;;;11.48;64.32;94989.47;4881695;28;20356;-81
2024/02/11 10:56:25;;;;;;;5.93;4.07;;;;;;;11.42;64.81;94991.44;4899995;28;20036;-83
2024/02/11 10:59:23;;;;;;;8.35;4.18;;;;;;;11.73;64.35;94997.63;4912703;29;20028;-83
2024/02/11 11:01:49;;;;;;;5.70;3.67;;;;;;;11.59;63.53;94982.13;4886496;29;20357;-82
2024/02/11 11:04:20;;;;;;;6.13;3.55;;;;;;;11.80;63.07;94988.28;4989213;28;20042;-83
2024/02/11 11:06:46;;;;;;;4.93;3.20;;;;;;;11.66;62.66;94992.88;4867054;29;20492;-81
2024/02/11 11:09:11;;;;;;;5.03;3.42;;;;;;;11.66;63.01;94987.66;4998584;28;20102;-84
2024/02/11 11:11:37;;;;;;;6.07;2.97;;;;;;;11.55;62.61;94996.81;4985915;28;20044;-83
2024/02/11 11:14:09;;;;;;;3.42;2.60;;;;;;;11.71;61.91;94991.97;4905088;29;20151;-83
2024/02/11 11:16:44;;;;;;;5.43;3.28;;;;;;;11.54;62.06;94990.84;4899505;28;20044;-85
2024/02/11 11:19:10;;;;;;;;;;;;;;;11.54;61.35;94993.47;4898930;29;20056;-85
2024/02/11 11:21:36;;;;;;;5.82;3.30;;;;;;;11.37;61.83;94988.97;4912249;28;20258;-84
2024/02/11 11:24:01;;;;;;;5.20;2.88;;;;;;;11.54;62.23;94987.50;4924271;29;20047;-83
2024/02/11 11:26:30;;;;;;;5.22;3.22;;;;;;;11.72;61.53;94989.06;4884707;29;20051;-83
2024/02/11 11:29:05;;;;;;;5.20;2.90;;;;;;;12.01;60.92;94992.91;4890350;29;20037;-84